createdAt,value
2018-09-28T00:02:28.071Z,6.77
2018-09-28T00:04:56.579Z,7.07
2018-09-28T00:07:25.257Z,9.80
2018-09-28T00:09:53.788Z,15.73
2018-09-28T00:12:22.951Z,10.17
2018-09-28T00:14:51.543Z,10.80
2018-09-28T00:17:20.745Z,8.90
2018-09-28T00:19:49.264Z,6.50
2018-09-28T00:22:18.459Z,11.37
2018-09-28T00:24:47.114Z,7.40
2018-09-28T00:27:15.623Z,7.23
2018-09-28T00:29:44.141Z,6.13
2018-09-28T00:32:12.836Z,6.03
2018-09-28T00:34:41.950Z,6.43
2018-09-28T00:37:10.576Z,6.73
2018-09-28T00:39:40.103Z,8.77
2018-09-28T00:42:08.685Z,9.03
2018-09-28T00:44:37.487Z,5.13
2018-09-28T00:47:06.328Z,6.77
2018-09-28T00:49:35.634Z,8.30
2018-09-28T00:52:05.031Z,10.30
2018-09-28T00:54:33.626Z,8.37
2018-09-28T00:57:02.251Z,11.33
2018-09-28T00:59:30.924Z,10.70
2018-09-28T01:02:00.169Z,8.60
2018-09-28T01:04:28.803Z,9.40
2018-09-28T01:06:57.370Z,7.57
2018-09-28T01:09:25.916Z,9.53
2018-09-28T01:11:54.471Z,6.70
2018-09-28T01:14:23.007Z,8.43
2018-09-28T01:16:51.629Z,6.53
2018-09-28T01:19:20.198Z,7.70
2018-09-28T01:21:49.475Z,7.27
2018-09-28T01:24:18.155Z,6.93
2018-09-28T01:26:46.719Z,7.67
2018-09-28T01:29:15.489Z,7.83
2018-09-28T01:31:44.135Z,9.97
2018-09-28T01:34:13.643Z,12.27
2018-09-28T01:36:42.243Z,11.10
2018-09-28T01:39:11.126Z,9.23
2018-09-28T01:41:39.994Z,12.67
2018-09-28T01:44:08.772Z,11.27
2018-09-28T01:46:37.386Z,11.87
2018-09-28T01:49:05.939Z,9.70
2018-09-28T01:51:34.554Z,9.30
2018-09-28T01:54:03.119Z,8.73
2018-09-28T01:56:31.715Z,8.20
2018-09-28T01:59:00.296Z,11.93
2018-09-28T02:01:28.837Z,8.37
2018-09-28T02:03:57.386Z,10.50
2018-09-28T02:06:25.958Z,10.87
2018-09-28T02:08:54.545Z,8.33
2018-09-28T02:11:23.199Z,7.67
2018-09-28T02:13:51.909Z,7.70
2018-09-28T02:16:20.468Z,9.70
2018-09-28T02:18:49.876Z,8.90
2018-09-28T02:21:18.447Z,6.33
2018-09-28T02:23:47.243Z,8.03
2018-09-28T02:26:15.783Z,8.90
2018-09-28T02:28:45.515Z,9.10
2018-09-28T02:31:14.236Z,12.20
2018-09-28T02:33:43.272Z,9.27
2018-09-28T02:36:11.799Z,12.57
2018-09-28T02:38:41.132Z,11.80
2018-09-28T02:41:10.193Z,9.37
2018-09-28T02:43:38.766Z,8.93
2018-09-28T02:46:07.648Z,11.13
2018-09-28T02:48:37.267Z,8.43
2018-09-28T02:51:05.878Z,8.90
2018-09-28T02:53:34.445Z,11.63
2018-09-28T02:56:03.304Z,11.73
2018-09-28T02:58:31.844Z,12.57
2018-09-28T03:01:00.567Z,8.53
2018-09-28T03:03:29.201Z,11.13
2018-09-28T03:05:57.951Z,12.40
2018-09-28T03:08:26.465Z,7.80
2018-09-28T03:10:55.239Z,14.13
2018-09-28T03:13:23.791Z,12.20
2018-09-28T03:15:52.502Z,15.37
2018-09-28T03:18:21.021Z,18.13
2018-09-28T03:20:49.636Z,11.20
2018-09-28T03:23:18.192Z,9.77
2018-09-28T03:25:47.461Z,12.33
2018-09-28T03:28:15.975Z,12.67
2018-09-28T03:30:45.214Z,12.47
2018-09-28T03:33:13.831Z,10.30
2018-09-28T03:35:42.428Z,14.67
2018-09-28T03:38:10.992Z,15.83
2018-09-28T03:40:40.253Z,16.10
2018-09-28T03:43:08.837Z,18.90
2018-09-28T03:45:37.344Z,12.73
2018-09-28T03:48:06.343Z,12.00
2018-09-28T03:50:34.950Z,11.13
2018-09-28T03:53:03.488Z,10.70
2018-09-28T03:55:32.171Z,13.07
2018-09-28T03:58:00.737Z,15.73
2018-09-28T04:00:29.927Z,16.83
2018-09-28T04:02:58.647Z,13.40
2018-09-28T04:05:27.053Z,15.60
2018-09-28T04:07:55.693Z,10.87
2018-09-28T04:10:24.193Z,11.43
2018-09-28T04:12:52.699Z,11.57
2018-09-28T04:15:21.288Z,10.33
2018-09-28T04:17:50.350Z,10.07
2018-09-28T04:20:19.100Z,14.53
2018-09-28T04:22:47.670Z,11.00
2018-09-28T04:25:16.280Z,12.93
2018-09-28T04:27:44.811Z,12.20
2018-09-28T04:30:13.390Z,11.90
2018-09-28T04:32:42.606Z,10.83
2018-09-28T04:35:11.297Z,16.57
2018-09-28T04:37:39.790Z,14.10
2018-09-28T04:40:08.491Z,10.10
2018-09-28T04:42:37.060Z,14.20
2018-09-28T04:45:06.074Z,10.37
2018-09-28T04:47:34.513Z,12.63
2018-09-28T04:50:03.136Z,10.53
2018-09-28T04:52:31.770Z,17.23
2018-09-28T04:55:00.416Z,12.63
2018-09-28T04:57:29.043Z,11.70
2018-09-28T04:59:57.696Z,10.97
2018-09-28T05:02:26.352Z,12.40
2018-09-28T05:04:54.911Z,11.13
2018-09-28T05:07:23.451Z,11.83
2018-09-28T05:09:52.036Z,10.90
2018-09-28T05:12:20.595Z,13.80
2018-09-28T05:14:49.416Z,11.83
2018-09-28T05:17:18.805Z,14.33
2018-09-28T05:19:47.305Z,14.13
2018-09-28T05:22:16.392Z,10.70
2018-09-28T05:24:44.929Z,11.33
2018-09-28T05:27:13.457Z,12.70
2018-09-28T05:29:42.415Z,12.70
2018-09-28T05:32:11.377Z,15.53
2018-09-28T05:34:39.900Z,15.07
2018-09-28T05:37:08.499Z,13.33
2018-09-28T05:39:37.033Z,11.53
2018-09-28T05:42:05.639Z,13.90
2018-09-28T05:44:34.116Z,16.07
2018-09-28T05:47:02.961Z,12.37
2018-09-28T05:49:31.492Z,13.10
2018-09-28T05:52:00.291Z,12.53
2018-09-28T05:54:28.888Z,13.33
2018-09-28T05:56:58.208Z,13.37
2018-09-28T05:59:32.407Z,13.60
2018-09-28T06:02:06.373Z,13.67
2018-09-28T06:04:40.206Z,15.17
2018-09-28T06:07:08.942Z,15.57
2018-09-28T06:09:37.483Z,13.60
2018-09-28T06:12:06.383Z,17.73
2018-09-28T06:14:35.615Z,16.97
2018-09-28T06:17:04.619Z,14.53
2018-09-28T06:19:33.387Z,14.97
2018-09-28T06:22:01.986Z,15.13
2018-09-28T06:24:30.788Z,13.37
2018-09-28T06:26:59.372Z,14.57
2018-09-28T06:29:42.669Z,16.73
2018-09-28T06:32:27.720Z,16.77
2018-09-28T06:34:57.152Z,13.37
2018-09-28T06:37:26.906Z,14.47
2018-09-28T06:39:57.484Z,20.33
2018-09-28T06:42:26.096Z,18.40
2018-09-28T06:44:55.532Z,16.13
2018-09-28T06:47:25.630Z,17.20
2018-09-28T06:49:54.231Z,14.93
2018-09-28T06:52:22.776Z,16.23
2018-09-28T06:54:51.679Z,15.77
2018-09-28T06:57:20.718Z,18.20
2018-09-28T06:59:49.254Z,14.63
2018-09-28T07:02:17.927Z,11.90
2018-09-28T07:04:46.707Z,15.77
2018-09-28T07:07:15.304Z,14.60
2018-09-28T07:09:44.041Z,16.50
2018-09-28T07:12:13.486Z,14.60
2018-09-28T07:14:42.938Z,17.93
2018-09-28T07:17:12.500Z,14.27
2018-09-28T07:19:41.203Z,12.00
2018-09-28T07:22:10.261Z,15.70
2018-09-28T07:24:39.214Z,13.83
2018-09-28T07:27:11.835Z,16.03
2018-09-28T07:29:40.435Z,16.43
2018-09-28T07:32:09.259Z,12.93
2018-09-28T07:34:38.418Z,13.63
2018-09-28T07:37:07.363Z,12.03
2018-09-28T07:39:35.823Z,12.97
2018-09-28T07:42:04.391Z,16.80
2018-09-28T07:44:33.127Z,16.13
2018-09-28T07:47:01.720Z,15.03
2018-09-28T07:49:30.316Z,12.50
2018-09-28T07:51:59.054Z,14.67
2018-09-28T07:54:27.587Z,15.47
2018-09-28T07:56:57.077Z,17.97
2018-09-28T07:59:25.679Z,17.00
2018-09-28T08:01:54.298Z,24.80
2018-09-28T08:04:22.972Z,18.93
2018-09-28T08:06:52.483Z,18.77
2018-09-28T08:09:21.104Z,21.07
2018-09-28T08:11:49.731Z,25.60
2018-09-28T08:14:18.307Z,20.73
2018-09-28T08:16:46.881Z,19.97
2018-09-28T08:19:15.456Z,21.00
2018-09-28T08:21:45.136Z,21.63
2018-09-28T08:24:13.942Z,23.17
2018-09-28T08:26:42.652Z,27.57
2018-09-28T08:29:11.692Z,24.30
2018-09-28T08:31:40.893Z,24.23
2018-09-28T08:34:10.024Z,24.23
2018-09-28T08:36:38.594Z,26.47
2018-09-28T08:39:08.827Z,28.63
2018-09-28T08:41:38.257Z,29.07
2018-09-28T08:44:07.071Z,28.07
2018-09-28T08:46:35.683Z,28.83
2018-09-28T08:49:04.917Z,27.80
2018-09-28T08:51:34.136Z,32.47
2018-09-28T08:54:02.652Z,26.00
2018-09-28T08:56:31.289Z,27.63
2018-09-28T08:58:59.838Z,26.80
2018-09-28T09:01:29.148Z,23.37
2018-09-28T09:03:58.051Z,27.40
2018-09-28T09:06:26.898Z,25.50
2018-09-28T09:08:55.402Z,29.97
2018-09-28T09:11:24.021Z,33.73
2018-09-28T09:13:52.674Z,37.03
2018-09-28T09:16:21.224Z,35.23
2018-09-28T09:18:49.895Z,35.73
2018-09-28T09:21:18.454Z,37.97
2018-09-28T09:23:47.754Z,38.73
2018-09-28T09:26:16.779Z,32.73
2018-09-28T09:28:45.270Z,35.67
2018-09-28T09:31:13.794Z,38.13
2018-09-28T09:33:42.431Z,35.50
2018-09-28T09:36:11.216Z,39.43
2018-09-28T09:38:40.876Z,39.77
2018-09-28T09:41:09.510Z,39.20
2018-09-28T09:43:38.159Z,41.03
2018-09-28T09:46:07.849Z,41.70
2018-09-28T09:48:37.502Z,40.73
2018-09-28T09:51:06.276Z,41.60
2018-09-28T09:53:35.343Z,45.20
2018-09-28T09:56:03.936Z,47.07
2018-09-28T09:58:33.180Z,48.47
2018-09-28T10:01:07.052Z,50.70
2018-09-28T10:03:41.701Z,52.17
2018-09-28T10:06:11.243Z,53.87
2018-09-28T10:08:39.984Z,51.97
2018-09-28T10:11:08.743Z,59.13
2018-09-28T10:13:37.301Z,66.67
2018-09-28T10:16:05.872Z,59.10
2018-09-28T10:18:35.365Z,58.07
2018-09-28T10:21:03.956Z,57.20
2018-09-28T10:23:32.953Z,58.33
2018-09-28T10:26:01.602Z,63.07
2018-09-28T10:28:30.213Z,59.43
2018-09-28T10:30:58.894Z,65.37
2018-09-28T10:33:27.557Z,64.60
2018-09-28T10:35:57.038Z,63.43
2018-09-28T10:38:25.642Z,63.93
2018-09-28T10:40:54.426Z,63.33
2018-09-28T10:43:23.595Z,65.13
2018-09-28T10:45:52.291Z,67.20
2018-09-28T10:48:20.841Z,72.50
2018-09-28T10:50:49.513Z,71.13
2018-09-28T10:53:18.062Z,73.17
2018-09-28T10:55:47.560Z,72.03
2018-09-28T10:58:16.358Z,71.00
2018-09-28T11:00:45.063Z,72.13
2018-09-28T11:03:13.673Z,69.77
2018-09-28T11:05:43.172Z,71.03
2018-09-28T11:08:12.408Z,68.47
2018-09-28T11:10:41.177Z,83.13
2018-09-28T11:13:09.692Z,76.40
2018-09-28T11:15:38.682Z,76.97
2018-09-28T11:18:07.908Z,86.77
2018-09-28T11:20:36.612Z,78.13
2018-09-28T11:23:05.157Z,74.57
2018-09-28T11:25:34.380Z,72.50
2018-09-28T11:28:03.114Z,72.40
2018-09-28T11:30:33.025Z,71.53
2018-09-28T11:33:01.713Z,74.47
2018-09-28T11:35:32.055Z,79.27
2018-09-28T11:38:01.911Z,75.23
2018-09-28T11:40:31.242Z,70.20
2018-09-28T11:43:01.866Z,70.93
2018-09-28T11:45:30.478Z,67.07
2018-09-28T11:47:59.771Z,69.77
2018-09-28T11:50:29.001Z,63.10
2018-09-28T11:52:57.885Z,62.30
2018-09-28T11:55:26.574Z,62.50
2018-09-28T11:57:55.235Z,54.90
2018-09-28T12:00:23.903Z,51.03
2018-09-28T12:02:52.609Z,46.13
2018-09-28T12:05:21.758Z,44.93
2018-09-28T12:07:50.620Z,39.97
2018-09-28T12:10:20.132Z,40.50
2018-09-28T12:12:48.870Z,33.20
2018-09-28T12:15:17.465Z,35.70
2018-09-28T12:17:46.007Z,31.80
2018-09-28T12:20:14.591Z,31.93
2018-09-28T12:22:46.406Z,31.10
2018-09-28T12:25:15.193Z,31.90
2018-09-28T12:27:43.992Z,31.60
2018-09-28T12:30:13.084Z,30.47
2018-09-28T12:32:41.684Z,30.00
2018-09-28T12:35:10.231Z,31.87
2018-09-28T12:37:38.799Z,28.87
2018-09-28T12:40:08.585Z,30.57
2018-09-28T12:42:37.955Z,29.13
2018-09-28T12:45:06.630Z,27.60
2018-09-28T12:47:35.150Z,27.17
2018-09-28T12:50:03.679Z,23.63
2018-09-28T12:52:32.256Z,24.93
2018-09-28T12:55:00.895Z,23.37
2018-09-28T12:57:29.511Z,28.43
2018-09-28T12:59:58.103Z,22.83
2018-09-28T13:02:26.712Z,21.10
2018-09-28T13:04:55.232Z,24.33
2018-09-28T13:07:24.083Z,22.83
2018-09-28T13:09:53.499Z,24.97
2018-09-28T13:12:22.059Z,18.07
2018-09-28T13:14:52.481Z,19.87
2018-09-28T13:17:20.981Z,21.03
2018-09-28T13:19:49.592Z,19.53
2018-09-28T13:22:18.240Z,21.60
2018-09-28T13:24:46.896Z,15.07
2018-09-28T13:27:16.116Z,22.37
2018-09-28T13:29:44.674Z,21.20
2018-09-28T13:32:14.362Z,17.80
2018-09-28T13:34:43.090Z,20.30
2018-09-28T13:37:11.742Z,17.50
2018-09-28T13:39:40.469Z,17.00
2018-09-28T13:42:09.371Z,15.37
2018-09-28T13:44:38.956Z,17.50
2018-09-28T13:47:07.632Z,16.03
2018-09-28T13:49:36.229Z,15.77
2018-09-28T13:52:05.335Z,16.30
2018-09-28T13:54:34.018Z,17.60
2018-09-28T13:57:03.233Z,16.23
2018-09-28T13:59:31.883Z,21.30
2018-09-28T14:02:01.152Z,12.67
2018-09-28T14:04:30.626Z,11.40
2018-09-28T14:06:59.278Z,11.23
2018-09-28T14:09:27.890Z,12.53
2018-09-28T14:11:57.134Z,17.13
2018-09-28T14:14:26.466Z,10.47
2018-09-28T14:16:55.029Z,16.70
2018-09-28T14:19:23.593Z,12.43
2018-09-28T14:21:52.373Z,13.97
2018-09-28T14:24:21.235Z,15.70
2018-09-28T14:26:51.413Z,15.30
2018-09-28T14:29:19.880Z,11.27
2018-09-28T14:31:48.472Z,14.33
2018-09-28T14:34:17.187Z,16.13
2018-09-28T14:36:45.944Z,19.33
2018-09-28T14:39:14.430Z,11.27
2018-09-28T14:41:43.142Z,15.57
2018-09-28T14:44:11.978Z,13.60
2018-09-28T14:46:40.729Z,6.60
2018-09-28T14:49:09.513Z,10.00
2018-09-28T14:51:38.244Z,8.90
2018-09-28T14:54:06.980Z,9.53
2018-09-28T14:56:35.598Z,11.63
2018-09-28T14:59:05.269Z,14.70
2018-09-28T15:01:34.190Z,9.63
2018-09-28T15:04:03.363Z,9.73
2018-09-28T15:06:32.151Z,11.13
2018-09-28T15:09:02.391Z,7.53
2018-09-28T15:11:32.017Z,11.37
2018-09-28T15:14:08.362Z,11.37
2018-09-28T15:16:37.519Z,14.43
2018-09-28T15:19:06.480Z,10.40
2018-09-28T15:21:36.406Z,11.37
2018-09-28T15:24:05.178Z,12.00
2018-09-28T15:26:34.115Z,13.77
2018-09-28T15:29:02.721Z,10.80
2018-09-28T15:31:31.308Z,13.63
2018-09-28T15:34:01.287Z,12.83
2018-09-28T15:36:30.164Z,12.70
2018-09-28T15:38:58.859Z,12.57
2018-09-28T15:41:27.553Z,11.33
2018-09-28T15:43:56.211Z,10.90
2018-09-28T15:46:24.872Z,14.47
2018-09-28T15:48:53.487Z,15.70
2018-09-28T15:51:22.182Z,14.27
2018-09-28T15:53:51.976Z,15.87
2018-09-28T15:56:20.693Z,14.07
2018-09-28T15:58:49.955Z,13.73
2018-09-28T16:01:18.733Z,13.93
2018-09-28T16:03:47.388Z,14.03
2018-09-28T16:06:16.087Z,12.83
2018-09-28T16:08:45.608Z,15.80
2018-09-28T16:11:14.858Z,15.73
2018-09-28T16:13:43.560Z,14.37
2018-09-28T16:16:12.375Z,12.97
2018-09-28T16:18:41.898Z,14.97
2018-09-28T16:21:10.533Z,15.67
2018-09-28T16:23:39.343Z,12.77
2018-09-28T16:26:08.024Z,16.00
2018-09-28T16:28:37.108Z,10.90
2018-09-28T16:31:05.876Z,9.23
2018-09-28T16:33:34.629Z,15.50
2018-09-28T16:36:03.330Z,16.23
2018-09-28T16:38:32.566Z,13.00
2018-09-28T16:41:01.232Z,11.30
2018-09-28T16:43:29.874Z,16.43
2018-09-28T16:45:58.727Z,14.50
2018-09-28T16:48:27.320Z,15.33
2018-09-28T16:50:56.675Z,15.20
2018-09-28T16:53:27.183Z,17.70
2018-09-28T16:55:55.915Z,20.20
2018-09-28T16:58:25.236Z,19.63
2018-09-28T17:00:53.843Z,18.53
2018-09-28T17:03:22.479Z,16.27
2018-09-28T17:05:51.120Z,21.57
2018-09-28T17:08:19.676Z,16.83
2018-09-28T17:10:48.531Z,13.60
2018-09-28T17:13:17.836Z,14.77
2018-09-28T17:15:47.179Z,19.57
2018-09-28T17:18:15.873Z,18.23
2018-09-28T17:20:45.531Z,20.10
2018-09-28T17:23:14.151Z,18.97
2018-09-28T17:25:43.089Z,20.27
2018-09-28T17:28:12.388Z,22.40
2018-09-28T17:30:41.609Z,19.90
2018-09-28T17:33:10.515Z,22.93
2018-09-28T17:35:39.161Z,20.60
2018-09-28T17:38:08.095Z,22.47
2018-09-28T17:40:37.637Z,15.90
2018-09-28T17:43:06.347Z,20.77
2018-09-28T17:45:35.071Z,16.53
2018-09-28T17:48:04.391Z,18.93
2018-09-28T17:50:33.049Z,18.93
2018-09-28T17:53:02.207Z,21.30
2018-09-28T17:55:30.813Z,23.30
2018-09-28T17:57:59.502Z,21.40
2018-09-28T18:00:28.144Z,17.00
2018-09-28T18:02:56.724Z,18.60
2018-09-28T18:05:25.718Z,28.13
2018-09-28T18:07:54.416Z,26.70
2018-09-28T18:10:23.114Z,20.30
2018-09-28T18:12:52.275Z,21.20
2018-09-28T18:15:21.391Z,23.60
2018-09-28T18:17:50.318Z,23.67
2018-09-28T18:20:19.234Z,23.10
2018-09-28T18:22:48.976Z,23.10
2018-09-28T18:25:17.701Z,20.90
2018-09-28T18:27:47.068Z,25.93
2018-09-28T18:30:16.055Z,24.00
2018-09-28T18:32:44.627Z,20.83
2018-09-28T18:35:13.436Z,24.63
2018-09-28T18:37:42.085Z,20.27
2018-09-28T18:40:10.836Z,26.60
2018-09-28T18:42:40.233Z,23.07
2018-09-28T18:45:09.130Z,24.13
2018-09-28T18:47:37.971Z,19.47
2018-09-28T18:50:06.736Z,17.90
2018-09-28T18:52:35.784Z,22.27
2018-09-28T18:55:04.842Z,18.87
2018-09-28T18:57:33.545Z,21.43
2018-09-28T19:00:02.183Z,22.83
2018-09-28T19:02:31.030Z,23.07
2018-09-28T19:04:59.631Z,22.80
2018-09-28T19:07:28.319Z,18.83
2018-09-28T19:09:57.196Z,21.40
2018-09-28T19:12:25.785Z,17.80
2018-09-28T19:14:54.549Z,29.20
2018-09-28T19:17:23.467Z,26.87
2018-09-28T19:19:52.186Z,26.60
2018-09-28T19:22:20.944Z,29.43
2018-09-28T19:24:49.676Z,27.40
2018-09-28T19:27:18.403Z,29.80
2018-09-28T19:29:47.774Z,33.97
2018-09-28T19:32:16.941Z,27.70
2018-09-28T19:34:46.067Z,24.57
2018-09-28T19:37:14.627Z,24.07
2018-09-28T19:39:43.399Z,19.47
2018-09-28T19:42:12.196Z,21.20
2018-09-28T19:44:40.945Z,20.83
2018-09-28T19:47:10.160Z,19.57
2018-09-28T19:49:39.145Z,21.13
2018-09-28T19:52:07.749Z,19.33
2018-09-28T19:54:36.536Z,16.97
2018-09-28T19:57:06.604Z,21.83
2018-09-28T19:59:35.297Z,20.50
2018-09-28T20:02:03.948Z,18.03
2018-09-28T20:04:33.997Z,19.80
2018-09-28T20:07:03.519Z,15.23
2018-09-28T20:09:32.914Z,18.90
2018-09-28T20:12:02.325Z,19.97
2018-09-28T20:14:31.045Z,18.90
2018-09-28T20:17:00.059Z,14.37
2018-09-28T20:19:29.288Z,12.90
2018-09-28T20:21:58.023Z,15.73
2018-09-28T20:24:26.577Z,14.97
2018-09-28T20:26:55.324Z,17.80
2018-09-28T20:29:23.902Z,10.87
2018-09-28T20:31:52.540Z,18.60
2018-09-28T20:34:21.103Z,17.03
2018-09-28T20:36:49.687Z,13.73
2018-09-28T20:39:19.261Z,14.13
2018-09-28T20:41:47.902Z,18.57
2018-09-28T20:44:17.371Z,16.70
2018-09-28T20:46:45.956Z,16.93
2018-09-28T20:49:14.532Z,20.13
2018-09-28T20:51:43.103Z,17.03
2018-09-28T20:54:11.681Z,18.13
2018-09-28T20:56:40.224Z,17.13
2018-09-28T20:59:08.798Z,17.13
2018-09-28T21:01:37.348Z,16.77
2018-09-28T21:04:05.964Z,17.27
2018-09-28T21:06:35.124Z,12.27
2018-09-28T21:09:04.919Z,19.40
2018-09-28T21:11:33.481Z,15.87
2018-09-28T21:14:02.008Z,12.97
2018-09-28T21:16:30.724Z,14.37
2018-09-28T21:18:59.283Z,13.17
2018-09-28T21:21:27.980Z,17.30
2018-09-28T21:23:56.571Z,11.40
2018-09-28T21:26:25.201Z,12.50
2018-09-28T21:29:05.709Z,11.90
2018-09-28T21:31:34.487Z,14.50
2018-09-28T21:34:04.382Z,14.90
2018-09-28T21:36:32.894Z,15.50
2018-09-28T21:39:01.448Z,17.40
2018-09-28T21:41:30.107Z,18.03
2018-09-28T21:43:58.682Z,13.73
2018-09-28T21:46:28.007Z,12.03
2018-09-28T21:48:56.601Z,11.47
2018-09-28T21:51:25.310Z,12.57
2018-09-28T21:53:53.953Z,16.30
2018-09-28T21:56:25.654Z,12.93
2018-09-28T21:58:55.062Z,12.87
2018-09-28T22:01:23.634Z,9.87
2018-09-28T22:03:52.219Z,11.73
2018-09-28T22:06:20.770Z,12.00
2018-09-28T22:08:49.366Z,9.57
2018-09-28T22:11:17.958Z,12.33
2018-09-28T22:13:46.599Z,14.83
2018-09-28T22:16:15.047Z,14.33
2018-09-28T22:18:45.190Z,11.77
2018-09-28T22:21:13.738Z,12.70
2018-09-28T22:23:42.284Z,12.73
2018-09-28T22:26:11.490Z,14.90
2018-09-28T22:28:40.111Z,11.47
2018-09-28T22:31:08.788Z,12.53
2018-09-28T22:33:37.666Z,10.60
2018-09-28T22:36:06.472Z,12.03
2018-09-28T22:38:35.458Z,14.37
2018-09-28T22:41:04.219Z,11.23
2018-09-28T22:43:32.828Z,13.23
2018-09-28T22:46:02.139Z,12.70
2018-09-28T22:48:30.818Z,10.50
2018-09-28T22:50:59.406Z,12.43
2018-09-28T22:53:28.039Z,9.90
2018-09-28T22:55:56.571Z,13.47
2018-09-28T22:58:25.390Z,11.30
2018-09-28T23:00:54.035Z,10.80
2018-09-28T23:03:22.611Z,11.53
2018-09-28T23:05:51.711Z,13.67
2018-09-28T23:08:20.367Z,12.63
2018-09-28T23:10:49.003Z,12.93
2018-09-28T23:13:17.648Z,12.93
2018-09-28T23:15:46.251Z,14.50
2018-09-28T23:18:15.160Z,11.90
2018-09-28T23:20:43.678Z,12.53
2018-09-28T23:23:12.568Z,16.20
2018-09-28T23:25:41.147Z,11.57
2018-09-28T23:28:09.683Z,13.30
2018-09-28T23:30:39.028Z,10.47
2018-09-28T23:33:07.624Z,12.40
2018-09-28T23:35:36.315Z,9.33
2018-09-28T23:38:05.537Z,10.20
2018-09-28T23:40:34.087Z,12.03
2018-09-28T23:43:04.020Z,9.63
2018-09-28T23:45:32.496Z,14.37
2018-09-28T23:48:01.076Z,11.40
2018-09-28T23:50:29.787Z,9.53
2018-09-28T23:52:58.393Z,10.97
2018-09-28T23:55:27.056Z,10.77
2018-09-28T23:57:55.553Z,13.33
